Data for 07/05/2017

Time Sea-Level Adjusted Pressure Absolute Pressure Temperature Relative Humidity Dew Point   
(mb) (inHg) (mb) (inHg) (C) (F) (%) (C) (F)
00:05 1021 30.15 850 25.1 18.3 64.9 34 2.1 35.8
00:10 1021 30.15 850 25.1 17.9 64.1 34 1.8 35.3
00:15 1021 30.15 850 25.1 17.8 64 32 1.1 34.1
00:20 1021 30.15 850 25.1 17.8 64.1 32 1 33.8
00:25 1021 30.15 850 25.1 18 64.3 31 0.6 33.2
00:30 1021 30.15 850 25.1 18.4 65 30 0.7 33.2
00:35 1021 30.15 850 25.1 18.4 65.1 30 0.5 33
00:40 1021 30.15 850 25.1 18.6 65.4 29 0.3 32.5
00:45 1021 30.15 850 25.1 18.7 65.7 28 0.2 32.3
00:50 1021 30.15 850 25.1 18.7 65.7 28 0.2 32.3
00:55 1021 30.15 850 25.1 18.7 65.7 29 0.3 32.6
01:00 1021 30.15 850 25.1 18.6 65.5 29 0.5 32.8
01:05 1021 30.15 850 25.1 18.4 65.1 30 0.4 32.7
01:10 1021 30.15 850 25.1 18.3 64.9 28 -0.5 31.2
01:15 1021 30.15 850 25.1 18.3 64.9 28 -0.6 30.9
01:20 1021 30.15 850 25.1 18.2 64.7 29 -0 31.9
01:25 1021 30.15 850 25.1 17.9 64.3 28 -0.6 31
01:30 1021 30.15 850 25.1 18 64.5 29 -0.3 31.5
01:35 1021 30.15 850 25.1 17.8 64.1 30 0.2 32.4
01:40 1021 30.15 850 25.1 17.4 63.3 31 0.2 32.3
01:45 1021 30.15 850 25.1 17.3 63.2 31 -0 31.9
01:50 1021 30.15 850 25.1 17 62.6 32 0.2 32.4
01:55 1021 30.15 850 25.1 16.8 62.2 33 0.4 32.8
02:00 1021 30.15 850 25.1 16.5 61.6 34 0.5 32.9
02:05 1021 30.15 851 25.13 16.4 61.5 34 0.4 32.8
02:10 1021 30.15 851 25.13 16.2 61.1 35 0.7 33.2
02:15 1021 30.15 851 25.13 16 60.8 35 0.6 33.1
02:20 1021 30.15 851 25.13 15.9 60.7 35 0.5 32.9
02:25 1021 30.15 851 25.13 15.9 60.7 34 0.1 32.2
02:30 1021 30.15 851 25.13 16 60.8 34 0.4 32.8
02:35 1021 30.15 851 25.13 15.9 60.7 33 -0.1 31.8
02:40 1021 30.15 851 25.13 16.2 61.1 33 -0.2 31.6
02:45 1021 30.15 851 25.13 16.1 60.9 33 0.1 32.2
02:50 1021 30.15 851 25.13 15.7 60.3 36 0.7 33.2
02:55 1021 30.15 851 25.13 15.6 60 33 -0.4 31.3
03:00 1021 30.15 851 25.13 16 60.9 32 -0.6 31
03:05 1021 30.15 851 25.13 16.6 61.8 30 -1.1 30
03:10 1021 30.15 851 25.13 17 62.5 31 0 32
03:15 1022 30.18 851 25.13 16.5 61.6 32 -0.2 31.7
03:20 1021 30.15 851 25.13 17 62.6 29 -1.2 29.8
03:25 1021 30.15 851 25.13 17.4 63.2 30 -0.1 31.9
03:30 1021 30.15 851 25.13 16.9 62.5 31 -0.1 31.8
03:35 1021 30.15 851 25.13 16.7 62 33 0.3 32.5
03:40 1021 30.15 851 25.13 16.6 61.8 34 0.6 33.1
03:45 1021 30.15 851 25.13 16.2 61.1 34 0.4 32.7
03:50 1021 30.15 851 25.13 15.9 60.6 35 0.4 32.7
03:55 1021 30.15 851 25.13 15.9 60.6 35 0.7 33.3
04:00 1021 30.15 851 25.13 15.9 60.7 36 0.8 33.4
04:05 1021 30.15 851 25.13 16.1 60.9 35 0.9 33.6
04:10 1022 30.18 851 25.13 15.9 60.6 36 0.9 33.6
04:15 1022 30.18 851 25.13 15.6 60.1 35 0.2 32.3
04:20 1022 30.18 851 25.13 16.2 61.1 34 0.3 32.6
04:25 1022 30.18 851 25.13 16.4 61.5 35 1.2 34.1
04:30 1022 30.18 851 25.13 16 60.8 37 1.5 34.6
04:35 1022 30.18 851 25.13 15.8 60.4 38 1.5 34.7
04:40 1022 30.18 851 25.13 15.7 60.3 38 1.6 34.9
04:45 1022 30.18 851 25.13 15.7 60.3 38 1.7 35
04:50 1022 30.18 851 25.13 15.6 60.2 39 1.9 35.4
04:55 1022 30.18 851 25.13 15.5 59.9 39 1.8 35.3
05:00 1022 30.18 851 25.13 15.5 59.9 39 1.6 34.9
05:05 1022 30.18 851 25.13 15.8 60.4 39 1.8 35.3
05:10 1022 30.18 851 25.13 16 60.7 39 1.9 35.5
05:15 1022 30.18 851 25.13 16.1 61 39 2.1 35.8
05:20 1022 30.18 852 25.16 16.2 61.1 38 1.9 35.4
05:25 1022 30.18 852 25.16 16.4 61.5 37 1.8 35.3
05:30 1022 30.18 852 25.16 16.6 61.9 36 1.7 35.1
05:35 1022 30.18 852 25.16 16.8 62.2 36 1.9 35.4
05:40 1022 30.18 852 25.16 16.9 62.3 37 2.2 35.9
05:45 1022 30.18 852 25.16 16.9 62.4 36 1.9 35.5
05:50 1023 30.21 852 25.16 16.9 62.3 39 2.8 37
05:55 1023 30.21 852 25.16 16.7 62.1 36 1.7 35
06:00 1023 30.21 852 25.16 17.2 63 36 2 35.6
06:05 1023 30.21 852 25.16 17.6 63.8 35 2 35.6
06:10 1023 30.21 852 25.16 17.8 64 38 3.5 38.3
06:15 1023 30.21 852 25.16 17.3 63.1 43 4.6 40.3
06:20 1023 30.21 852 25.16 16.9 62.4 46 5.3 41.5
06:25 1023 30.21 852 25.16 17.3 63.1 42 4.4 39.8
06:30 1023 30.21 852 25.16 17.3 63.1 43 4.7 40.5
06:35 1023 30.21 852 25.16 17.6 63.7 42 4.7 40.5
06:40 1023 30.21 852 25.16 18.1 64.5 44 5.8 42.5
06:45 1023 30.21 852 25.16 18.6 65.5 40 4.9 40.8
06:50 1023 30.21 852 25.16 18.8 65.8 40 4.9 40.9
06:55 1023 30.21 852 25.16 19.4 66.9 38 4.8 40.6
07:00 1023 30.21 852 25.16 19.6 67.3 39 5.5 41.9
07:05 1023 30.21 852 25.16 20 67.9 37 4.8 40.7
07:10 1023 30.21 852 25.16 20.3 68.6 38 5.5 42
07:15 1023 30.21 852 25.16 20.6 69.1 39 6.3 43.4
07:20 1023 30.21 852 25.16 21.1 69.9 37 5.9 42.5
07:25 1023 30.21 852 25.16 21.9 71.4 35 5.9 42.7
07:30 1023 30.21 852 25.16 22.4 72.4 33 5.4 41.7
07:35 1023 30.21 853 25.19 22.2 71.9 35 6.3 43.3
07:40 1023 30.21 853 25.19 21.8 71.2 32 4.7 40.5
07:45 1023 30.21 853 25.19 22.6 72.6 33 5.7 42.3
07:50 1023 30.21 853 25.19 23 73.5 32 5.5 41.8
07:55 1023 30.21 853 25.19 23.2 73.7 32 5.7 42.2
08:00 1023 30.21 853 25.19 23.2 73.7 32 5.9 42.7
08:05 1023 30.21 853 25.19 23.6 74.6 31 5.6 42.1
08:10 1023 30.21 853 25.19 24.1 75.4 29 5.4 41.8
08:15 1023 30.21 853 25.19 24.6 76.3 30 6 42.8
08:20 1023 30.21 853 25.19 24.7 76.5 29 5.8 42.4
08:25 1023 30.21 853 25.19 24.4 75.9 30 6.1 43
08:30 1023 30.21 853 25.19 24.6 76.2 29 5.3 41.6
08:35 1023 30.21 853 25.19 24.9 76.8 28 5.4 41.7
08:40 1023 30.21 853 25.19 24.9 76.8 27 5.1 41.1
08:45 1023 30.21 853 25.19 24.5 76.1 27 4.7 40.5
08:50 1023 30.21 853 25.19 24.8 76.6 28 5.1 41.2
08:55 1023 30.21 853 25.19 24.9 76.8 27 4.8 40.6
09:00 1023 30.21 853 25.19 25.7 78.3 26 4.9 40.8
09:05 1023 30.21 853 25.19 26.5 79.6 24 4.5 40.1
09:10 1023 30.21 853 25.19 26.6 79.9 24 4.7 40.5
09:15 1023 30.21 853 25.19 26.5 79.7 24 4.4 40
09:20 1023 30.21 853 25.19 26.3 79.3 24 4.6 40.2
09:25 1023 30.21 853 25.19 26.9 80.4 24 5 41
09:30 1023 30.21 853 25.19 27 80.6 24 5.3 41.5
09:35 1023 30.21 853 25.19 27 80.7 24 5.1 41.3
09:40 1024 30.24 853 25.19 27.2 80.9 24 5.2 41.3
09:45 1024 30.24 853 25.19 27.4 81.2 24 5.3 41.5
09:50 1023 30.21 853 25.19 27.8 82.1 22 4.4 39.9
09:55 1023 30.21 853 25.19 28 82.4 23 5 41
10:00 1023 30.21 853 25.19 27.8 82.1 24 5.5 42
10:05 1023 30.21 853 25.19 27.1 80.7 24 5.2 41.3
10:10 1023 30.21 853 25.19 28 82.4 23 5.2 41.4
10:15 1023 30.21 852 25.16 28 82.3 22 4.8 40.7
10:20 1023 30.21 852 25.16 27.1 80.7 23 4.5 40
10:25 1023 30.21 852 25.16 26.8 80.3 24 4.7 40.5
10:30 1023 30.21 852 25.16 27.3 81.2 24 5.3 41.5
10:35 1023 30.21 852 25.16 27.8 82 21 3.9 39.1
10:40 1023 30.21 852 25.16 28.6 83.4 19 2.9 37.3
10:45 1023 30.21 852 25.16 28.3 82.9 18 2.4 36.3
10:50 1023 30.21 852 25.16 28 82.5 20 3.1 37.6
10:55 1023 30.21 852 25.16 28.3 82.9 19 3.1 37.5
11:00 1023 30.21 852 25.16 28.6 83.5 18 2.7 36.8
11:05 1023 30.21 852 25.16 28.8 83.9 19 2.9 37.3
11:10 1023 30.21 852 25.16 29 84.1 18 2.5 36.5
11:15 1023 30.21 852 25.16 30 85.9 16 1.7 35.1
11:20 1023 30.21 852 25.16 30.2 86.4 17 2.9 37.2
11:25 1023 30.21 852 25.16 30.1 86.3 17 3 37.4
11:30 1023 30.21 852 25.16 29.8 85.7 19 3.8 38.8
11:35 1023 30.21 852 25.16 30.3 86.6 16 1.8 35.2
11:40 1023 30.21 852 25.16 30.4 86.7 17 3.2 37.7
11:45 1023 30.21 852 25.16 30.8 87.4 17 3.4 38.1
11:50 1023 30.21 852 25.16 30.7 87.3 17 3.3 37.9
11:55 1023 30.21 852 25.16 30.3 86.5 19 4.6 40.4
12:00 1023 30.21 852 25.16 30.1 86.1 20 5.2 41.4
12:05 1023 30.21 852 25.16 30.3 86.6 19 4.3 39.8
12:10 1023 30.21 852 25.16 30 86.1 20 4.8 40.7
12:15 1023 30.21 852 25.16 30.6 87 18 4 39.2
12:20 1023 30.21 852 25.16 30.2 86.3 19 4.3 39.7
12:25 1023 30.21 852 25.16 30.2 86.4 17 2.8 37.1
12:30 1023 30.21 852 25.16 31.4 88.6 17 3.7 38.7
12:35 1023 30.21 852 25.16 31.5 88.6 18 4.3 39.7
12:40 1023 30.21 852 25.16 30.9 87.7 18 4.3 39.8
12:45 1023 30.21 852 25.16 31.4 88.5 16 2.9 37.3
12:50 1022 30.18 852 25.16 31.3 88.3 19 5.2 41.4
12:55 1022 30.18 852 25.16 32.4 90.2 17 4.4 39.9
13:00 1022 30.18 852 25.16 32.8 91.1 15 2.8 37.1
13:05 1022 30.18 851 25.13 32.9 91.2 15 3.7 38.6
13:10 1022 30.18 851 25.13 33.1 91.6 17 5.1 41.2
13:15 1022 30.18 851 25.13 32.4 90.2 15 2.4 36.3
13:20 1022 30.18 851 25.13 32 89.7 16 3.5 38.3
13:25 1022 30.18 851 25.13 32.5 90.5 15 2.9 37.3
13:30 1022 30.18 851 25.13 32.1 89.7 16 3.1 37.6
13:35 1022 30.18 851 25.13 31.7 89 16 2.9 37.2
13:40 1022 30.18 851 25.13 32.3 90.1 15 2.4 36.3
13:45 1022 30.18 851 25.13 32.9 91.2 14 2.5 36.5
13:50 1022 30.18 851 25.13 33.5 92.2 14 3.1 37.6
13:55 1022 30.18 851 25.13 33.2 91.7 15 3.2 37.8
14:00 1021 30.15 851 25.13 33.2 91.7 14 2.7 36.9
14:05 1021 30.15 851 25.13 33 91.3 14 2.5 36.5
14:10 1021 30.15 851 25.13 33.8 92.8 15 3.5 38.4
14:15 1022 30.18 851 25.13 34.2 93.6 14 3.1 37.7
14:20 1022 30.18 851 25.13 34.5 94 14 3.8 38.8
14:25 1022 30.18 851 25.13 34 93.2 14 3.4 38.2
14:30 1022 30.18 851 25.13 33.7 92.6 14 3.2 37.7
14:35 1022 30.18 851 25.13 33.1 91.6 15 3.5 38.3
14:40 1022 30.18 851 25.13 32.3 90.1 18 5.4 41.7
14:45 1022 30.18 851 25.13 31.8 89.2 18 5 41.1
14:50 1022 30.18 851 25.13 31.5 88.6 18 4.5 40.1
14:55 1022 30.18 851 25.13 31.5 88.6 18 4.9 40.8
15:00 1022 30.18 851 25.13 31.4 88.4 19 5.2 41.3
15:05 1022 30.18 852 25.16 30.8 87.4 21 6.1 43
15:10 1023 30.21 852 25.16 29.9 85.8 26 8.8 47.8
15:15 1023 30.21 852 25.16 28.7 83.7 21 4.5 40.1
15:20 1023 30.21 853 25.19 27.5 81.4 23 4.7 40.5
15:25 1024 30.24 853 25.19 26.3 79.3 25 5.2 41.3
15:30 1024 30.24 853 25.19 25.4 77.7 27 5.3 41.5
15:35 1024 30.24 853 25.19 25.2 77.4 26 4.5 40
15:40 1024 30.24 854 25.22 25.2 77.4 27 5.3 41.5
15:45 1025 30.27 854 25.22 25 76.9 29 6 42.8
15:50 1025 30.27 854 25.22 24.3 75.8 32 6.9 44.4
15:55 1025 30.27 854 25.22 23.3 73.9 35 7.3 45.2
16:00 1026 30.3 855 25.25 22.8 73.1 39 8.2 46.7
16:05 1026 30.3 855 25.25 22 71.7 43 9.1 48.3
16:10 1026 30.3 856 25.28 21.8 71.3 39 7.6 45.6
16:15 1026 30.3 855 25.25 22.3 72.2 36 6.5 43.8
16:20 1026 30.3 855 25.25 23 73.4 36 7.5 45.4
16:25 1026 30.3 855 25.25 22.6 72.8 36 6.8 44.3
16:30 1026 30.3 855 25.25 22.6 72.7 35 6.5 43.7
16:35 1025 30.27 855 25.25 23.1 73.6 31 5.5 41.9
16:40 1025 30.27 854 25.22 23.2 73.8 33 6.2 43.2
16:45 1025 30.27 854 25.22 22.9 73.3 39 8.4 47.1
16:50 1024 30.24 854 25.22 21.8 71.2 46 9.8 49.7
16:55 1024 30.24 853 25.19 21.3 70.3 45 8.9 48
17:00 1024 30.24 853 25.19 21.5 70.8 41 8.1 46.5
17:05 1024 30.24 853 25.19 22 71.6 41 8.3 47
17:10 1024 30.24 853 25.19 22.3 72.1 39 7.8 46.1
17:15 1024 30.24 853 25.19 22.4 72.2 39 8 46.4
17:20 1024 30.24 853 25.19 22.4 72.3 37 7.1 44.8
17:25 1024 30.24 853 25.19 22.6 72.7 37 7.4 45.3
17:30 1024 30.24 853 25.19 22.7 72.9 36 7.2 45
17:35 1025 30.27 854 25.22 22.9 73.3 36 7.1 44.8
17:40 1025 30.27 854 25.22 23.1 73.6 34 6.6 43.9
17:45 1025 30.27 854 25.22 23.2 73.8 37 8.1 46.5
17:50 1025 30.27 854 25.22 22.8 73 39 8.5 47.2
17:55 1025 30.27 854 25.22 22.6 72.7 41 8.9 48
18:00 1024 30.24 854 25.22 22.1 71.8 41 8.5 47.3
18:05 1025 30.27 854 25.22 22.1 71.8 42 8.7 47.6
18:10 1025 30.27 854 25.22 22.2 71.9 42 8.9 48
18:15 1025 30.27 854 25.22 22.1 71.8 41 8.3 47
18:20 1025 30.27 854 25.22 22.7 72.8 35 6.4 43.6
18:25 1025 30.27 854 25.22 23.3 74 31 5.7 42.2
18:30 1025 30.27 854 25.22 23.7 74.7 31 5.6 42.1
18:35 1025 30.27 854 25.22 24 75.1 32 6.3 43.4
18:40 1025 30.27 854 25.22 23.6 74.6 34 7.2 44.9
18:45 1025 30.27 854 25.22 23.2 73.7 36 7.4 45.3
18:50 1025 30.27 854 25.22 23.1 73.6 36 7.4 45.3
18:55 1025 30.27 854 25.22 22.9 73.3 34 6.3 43.3
19:00 1025 30.27 854 25.22 23 73.5 32 5.8 42.5
19:05 1025 30.27 854 25.22 23.5 74.3 33 6.5 43.6
19:10 1025 30.27 854 25.22 23.5 74.3 31 5.8 42.4
19:15 1025 30.27 855 25.25 23.6 74.5 32 6 42.8
19:20 1025 30.27 855 25.25 23.5 74.3 33 6.5 43.7
19:25 1026 30.3 855 25.25 23.4 74 31 5.4 41.8
19:30 1026 30.3 855 25.25 23.6 74.5 34 7 44.7
19:35 1026 30.3 855 25.25 23.3 74 37 8.1 46.6
19:40 1025 30.27 855 25.25 22.6 72.8 36 7 44.5
19:45 1025 30.27 854 25.22 23.2 73.7 33 6 42.9
19:50 1025 30.27 854 25.22 23.5 74.2 33 6.3 43.4
19:55 1025 30.27 854 25.22 23.4 74.1 34 6.7 44
20:00 1025 30.27 854 25.22 23.1 73.6 34 6.6 43.9
20:05 1025 30.27 854 25.22 23 73.4 35 6.8 44.2
20:10 1025 30.27 854 25.22 22.7 72.8 36 7.1 44.7
20:15 1025 30.27 854 25.22 22.5 72.4 33 5.7 42.3
20:20 1024 30.24 854 25.22 22.9 73.3 31 5.3 41.6
20:25 1024 30.24 854 25.22 23.2 73.8 32 6 42.8
20:30 1025 30.27 854 25.22 22.8 73 34 6.2 43.1
20:35 1025 30.27 854 25.22 22.5 72.6 34 6.2 43.2
20:40 1025 30.27 854 25.22 22.4 72.4 34 6.1 43
20:45 1025 30.27 854 25.22 22.4 72.3 35 6.4 43.5
20:50 1025 30.27 854 25.22 22.3 72.1 35 6.5 43.6
20:55 1025 30.27 854 25.22 22.2 72 35 6.2 43.2
21:00 1024 30.24 854 25.22 22.2 71.9 35 6.4 43.4
21:05 1025 30.27 854 25.22 22.1 71.8 35 6 42.7
21:10 1025 30.27 854 25.22 22.2 72 34 5.7 42.3
21:15 1025 30.27 854 25.22 22.3 72.1 35 6.1 43
21:20 1025 30.27 854 25.22 21.9 71.4 37 6.7 44
21:25 1025 30.27 854 25.22 21.5 70.8 38 6.7 44
21:30 1025 30.27 854 25.22 21.2 70.2 39 7 44.6
21:35 1025 30.27 854 25.22 21 69.8 40 6.9 44.4
21:40 1025 30.27 854 25.22 20.9 69.7 39 6.5 43.8
21:45 1025 30.27 854 25.22 21 69.7 39 6.5 43.7
21:50 1025 30.27 855 25.25 21 69.9 38 6.3 43.4
21:55 1025 30.27 855 25.25 21.3 70.3 37 6.2 43.1
22:00 1025 30.27 855 25.25 21.2 70.2 39 6.7 44.1
22:05 1026 30.3 855 25.25 21.2 70.1 38 6.6 43.8
22:10 1026 30.3 855 25.25 21 69.9 39 6.7 44.1
22:15 1026 30.3 855 25.25 20.8 69.5 39 6.6 43.9
22:20 1026 30.3 855 25.25 20.8 69.4 40 6.7 44.1
22:25 1026 30.3 855 25.25 20.7 69.2 40 6.9 44.3
22:30 1026 30.3 855 25.25 20.5 68.8 41 6.9 44.5
22:35 1026 30.3 855 25.25 20.3 68.6 41 7 44.5
22:40 1026 30.3 855 25.25 20.3 68.5 41 6.8 44.3
22:45 1026 30.3 855 25.25 20.4 68.7 41 6.9 44.4
22:50 1026 30.3 855 25.25 20.4 68.7 42 7.1 44.8
22:55 1026 30.3 855 25.25 20.2 68.4 42 7.2 45
23:00 1026 30.3 855 25.25 20.1 68.2 43 7.4 45.3
23:05 1026 30.3 855 25.25 20 68 44 7.5 45.6
23:10 1026 30.3 855 25.25 19.9 67.8 44 7.6 45.6
23:15 1026 30.3 855 25.25 19.9 67.8 44 7.4 45.3
23:20 1026 30.3 855 25.25 20.1 68.2 43 7.3 45.2
23:25 1026 30.3 855 25.25 19.9 67.7 47 8.3 46.9
23:30 1026 30.3 855 25.25 19 66.3 48 7.9 46.2
23:35 1026 30.3 856 25.28 19.1 66.4 45 7.1 44.9
23:40 1026 30.3 856 25.28 19.3 66.7 45 7.3 45.1
23:45 1026 30.3 855 25.25 18.9 66.1 48 7.7 45.8
23:50 1026 30.3 855 25.25 18.5 65.3 49 7.7 45.9
23:55 1026 30.3 855 25.25 18.3 64.9 50 7.8 46
24:00 1026 30.3 855 25.25 18.2 64.7 50 7.7 45.9